Station: Pooncarie  

  Atmospheric Gas Attenuation - ITU Rec 676-11   ----------------- dB/100km -----------------
Date Time Temp RH % AH g/m3 Dew Point Wind Direction Speed kph Gust kph Barometer mB Rainfall Since 9am 24GHz 47GHz 76GHz 122GHz 134GHz 241GHz
08/05 09:00 11.2 73 7.4 6.5 9 1013.1 0 17.1 24.7 36.2 94.9 85.7 293.6
07/05 09:00 9.8 48 4.45 -0.5 11 1013.1 0.4 10.9 20.6 25.7 66.6 50.2 168.8
06/05 09:00 14.1 62 7.52 6.9 6 1013.1 0 17.3 24.1 35.4 92.7 84.1 288.4
05/05 09:00 12 83 8.85 9.2 0 1013.1 0 20.2 26.8 41.7 109.6 104.1 358.2
04/05 09:00 12 71 7.57 7 9 1013.1 0 17.5 24.7 36.5 95.8 87.0 298.4
03/05 09:00 15.2 91 11.81 13.8 7 1013.1 7 26.4 30.9 52.5 138.3 140.7 486.4
02/05 09:00 20 46 7.95 8 11 1013.1 0.2 17.9 23.2 34.5 90.3 83.1 285.7
30/04 09:00 17.1 47 6.84 5.8 6 1013.1 0 15.7 22.3 31.7 82.7 72.8 249.2
29/04 09:00 17.2 59 8.64 9.1 6 1013.1 0 19.5 25.0 38.3 100.5 94.7 326.0
28/04 09:00 16 50 6.81 5.6 7 1013.1 0 15.7 22.5 32.0 83.6 73.5 251.4
27/04 09:00 16.2 61 8.41 8.8 6 1013.1 0 19.1 24.9 37.9 99.3 93.0 319.8
26/04 09:00 19 39 6.35 4.7 9 1013.1 0 14.6 21.2 29.2 76.3 65.5 223.8
25/04 09:00 18.7 40 6.4 4.8 9 1013.1 0 14.7 21.3 29.5 77.0 66.3 226.6
24/04 09:00 16.5 46 6.46 4.9 9 1013.1 0 14.9 21.9 30.5 79.7 68.9 235.3
23/04 09:00 16.2 56 7.72 7.4 6 1013.1 0 17.6 23.8 35.2 92.3 84.3 289.5
22/04 09:00 17.2 50 7.32 6.7 6 1013.1 0 16.7 23.0 33.3 87.3 78.4 269.0
21/04 09:00 18 44 6.76 5.7 7 1013.1 0 15.5 22.0 31.0 81.1 71.1 243.2
20/04 09:00 16.5 39 5.48 2.6 0 1013.1 0 12.9 20.5 27.1 70.6 57.6 195.7
19/04 09:00 13 39 4.42 -0.7 6 1013.1 0 10.7 19.8 24.6 63.8 47.9 161.2
17/04 09:00 15.7 70 9.37 10.2 9 1013.1 0 21.1 26.6 41.9 110.1 106.1 365.6
16/04 09:00 16.1 60 8.22 8.5 6 1013.1 0 18.7 24.6 37.2 97.5 90.7 311.8
15/04 09:00 15 78 10 11.3 1013.1 0 22.5 27.8 44.9 118.0 115.5 398.6
14/04 09:00 14.6 76 9.51 10.4 7 1013.1 0 21.5 27.1 43.1 113.2 109.5 377.3
13/04 09:00 1013.1
12/04 09:00 14.2 77 9.4 10.2 15 1013.1 0 21.3 27.1 42.8 112.6 108.5 374.0
11/04 09:00 14.3 91 11.18 12.8 9 1013.1 0 25.1 30.1 50.3 132.5 133.2 460.2
10/04 09:00 18.4 90 14.15 16.7 9 1013.1 0.8 31.2 33.9 60.6 160.0 168.5 583.7
09/04 09:00 23.5 65 13.75 16.5 11 1013.1 0.8 30.0 31.3 55.1 145.3 152.0 527.1
08/04 09:00 19.5 69 11.58 13.8 9 1013.1 0 25.6 29.0 48.7 128.3 129.8 449.1
07/04 09:00 19.8 77 13.15 15.6 11 1013.1 0 29.0 31.6 55.2 145.5 151.0 523.1
06/04 09:00 20.8 51 9.23 10.5 0 1013.1 0.4 20.6 24.9 38.8 101.9 97.6 336.7
05/04 09:00 17 61 8.83 9.6 6 1013.1 19.9 25.3 39.1 102.7 97.4 335.2
04/04 09:00 14.8 55 6.97 5.8 9 1013.1 0 16.1 23.1 33.0 86.4 76.5 262.0
03/04 09:00 16.4 58 8.09 8.1 7 1013.1 0 18.4 24.4 36.6 95.8 88.7 304.9
02/04 09:00 16.7 86 12.22 14.4 0 1013.1 0 27.2 31.1 53.3 140.4 143.8 497.4
01/04 09:00 17.6 49 7.35 6.8 0 1013.1 0 16.8 22.9 33.3 87.1 78.4 268.9
31/03 09:00 16.5 53 7.44 7 9 1013.1 0 17.0 23.3 34.1 89.2 80.6 276.4
30/03 09:00 1013.1
29/03 09:00 14.5 68 8.46 8.8 0 1013.1 0 19.3 25.5 38.9 102.0 95.7 329.1
28/03 09:00 10.4 84 8.1 7.9 9 1013.1 0 18.7 26.1 39.5 103.5 96.0 329.5
27/03 09:00 10 87 8.18 7.9 15 1013.1 10 18.9 26.3 40.0 104.9 97.6 335.0
26/03 09:00 16.2 70 9.65 10.8 9 1013.1 0.8 21.7 26.9 42.8 112.4 109.1 376.2
25/03 09:00 24 69 15.01 18.1 9 1013.1 0 32.6 33.2 60.0 158.6 168.4 584.5
24/03 09:00 22.3 90 17.77 20.6 9 1013.1 0 38.6 39.0 74.0 195.8 213.6 741.6
23/03 09:00 21.3 56 10.44 12.3 9 1013.1 0 23.1 26.6 43.1 113.5 112.1 387.4
22/03 09:00 20.6 69 12.35 14.8 0 1013.1 0 27.2 29.9 51.2 135.0 138.4 479.1
21/03 09:00 20.3 68 11.96 14.3 9 1013.1 0 26.4 29.4 49.8 131.2 133.6 462.4
20/03 09:00 20.8 71 12.85 15.4 7 1013.1 0 28.2 30.7 53.2 140.2 144.9 501.8
17/03 09:00 20.4 87 15.39 18.1 9 1013.1 2 33.7 35.3 64.7 170.8 182.3 632.2
16/03 09:00 25.3 60 14.05 17.1 9 1013.1 0 30.5 31.1 55.1 145.3 152.5 529.1
15/03 09:00 21.6 54 10.24 12 6 1013.1 0 22.7 26.2 42.2 111.0 109.1 377.1
13/03 09:00 13.5 51 5.97 3.5 11 1013.1 0 14.0 21.9 29.9 77.9 65.6 223.4
12/03 09:00 15 67 8.59 8.9 15 1013.1 0 19.5 25.5 39.2 102.8 96.8 332.9
11/03 09:00 23.4 49 10.3 12.2 9 1013.1 0 22.7 25.8 41.5 109.1 107.4 371.2
10/03 09:00 18.7 54 8.64 9.4 9 1013.1 0 19.4 24.6 37.6 98.6 92.9 319.9
09/03 09:00 17.3 69 10.16 11.6 7 1013.1 0 22.7 27.4 44.2 116.3 114.3 394.5
08/03 09:00 16.1 78 10.69 12.3 9 1013.1 0 23.9 28.6 47.1 124.0 123.3 425.8
07/03 09:00 18.5 65 10.28 11.8 9 1013.1 0 22.9 27.2 44.0 115.8 114.1 394.0
06/03 09:00 18.8 62 9.98 11.5 9 1013.1 0 22.3 26.6 42.7 112.2 109.7 378.8
05/03 09:00 18 74 11.37 13.4 6 1013.1 0 25.3 29.2 48.8 128.5 129.5 447.8
04/03 09:00 17.2 78 11.42 13.3 9 1013.1 0 25.4 29.5 49.5 130.4 131.6 454.9
03/03 09:00 18 90 13.82 16.3 11 1013.1 1 30.5 33.4 59.4 156.9 164.4 569.7
02/03 09:00 23.8 88 18.93 21.8 11 1013.1 43 40.9 40.5 78.1 206.5 227.3 789.4
01/03 09:00 21.8 84 16.11 19 9 1013.1 26 35.1 36.1 66.7 176.4 189.6 657.9
28/02 09:00 27.8 41 11.03 13.5 9 1013.1 0 24.0 25.6 41.9 110.3 110.2 381.5
27/02 09:00 26.2 66 16.25 19.4 9 1013.1 0 35.0 34.5 63.6 168.2 180.9 628.1
26/02 09:00 20.5 70 12.45 14.9 9 1013.1 0.4 27.4 30.1 51.7 136.3 139.9 484.5
25/02 09:00 23.2 90 18.71 21.4 7 1013.1 6 40.5 40.3 77.6 205.4 225.7 783.6
24/02 09:00 26.6 72 18.12 21.2 15 1013.1 0 38.9 37.7 71.5 189.2 206.9 718.6
23/02 09:00 21 83 15.2 18.1 9 1013.1 18 33.2 34.7 63.3 167.1 178.0 617.5
22/02 09:00 26.2 69 16.99 20.1 9 1013.1 0 36.6 35.8 66.9 176.7 191.4 664.9
21/02 09:00 23.5 54 11.42 13.8 9 1013.1 0 25.0 27.5 45.7 120.3 121.3 419.7
20/02 09:00 22.3 50 9.87 11.4 9 1013.1 0 21.9 25.4 40.4 106.3 103.6 357.8
19/02 09:00 18.6 55 8.75 9.5 9 1013.1 0 19.7 24.8 38.0 99.8 94.4 325.1
18/02 09:00 17 81 11.72 13.8 15 1013.1 0.1 26.1 30.1 50.9 134.1 136.1 470.7
17/02 09:00 26.8 39 9.93 11.8 9 1013.1 0 21.7 24.3 38.5 101.1 98.6 340.8
16/02 09:00 26.4 40 9.96 11.7 9 1013.1 0 21.8 24.5 38.8 101.9 99.4 343.7
15/02 09:00 26.7 53 13.42 16.5 9 1013.1 0 29.0 29.6 51.6 136.0 141.6 491.0
14/02 09:00 20.2 70 12.24 14.7 11 1013.1 0 27.0 29.9 51.0 134.5 137.6 476.3
13/02 09:00 15.3 55 7.18 6.5 11 1013.1 0 16.5 23.3 33.6 88.0 78.6 269.4
12/02 09:00 16 62 8.45 8.8 30 1013.1 0 19.2 25.0 38.1 100.0 93.7 322.4
10/02 09:00 25.6 50 11.9 14.6 7 1013.1 0 25.9 27.6 46.3 122.1 124.0 429.7
09/02 09:00 25.8 77 18.54 21.6 9 1013.1 0 39.9 38.8 74.2 196.3 215.4 748.1
07/02 09:00 29.5 47 13.87 17.3 9 1013.1 0 29.8 29.4 51.5 135.9 142.2 493.7
06/02 09:00 25.8 32 7.7 7.8 9 1013.1 0 17.2 21.5 31.3 81.9 74.6 256.5
05/02 09:00 24.2 61 13.42 16.2 11 1013.1 0 29.2 30.5 53.2 140.4 146.2 506.9
04/02 09:00 27.2 51 13.27 16.4 11 1013.1 0 28.7 29.2 50.7 133.6 138.7 481.2
03/02 09:00 22.3 34 6.71 5.9 9 1013.1 0 15.2 20.9 29.3 76.5 66.8 228.8
02/02 09:00 14.5 35 4.35 -0.7 15 1013.1 0 10.5 19.4 23.9 62.0 46.2 155.5
01/02 09:00 19.4 69 11.51 13.6 19 1013.1 0.6 25.5 28.9 48.5 127.7 129.1 446.4
31/01 09:00 33.5 29 10.6 13.1 9 1013.1 0 22.8 23.5 37.7 99.1 98.0 339.3
30/01 09:00 30.8 24 7.6 7.9 9 1013.1 0 16.7 20.2 29.2 76.3 69.2 238.0
29/01 09:00 29.8 37 11.1 13.6 6 1013.1 0 24.0 25.2 41.1 108.3 108.3 375.0
28/01 09:00 28.2 22 6.05 4.9 6 1013.1 0 13.7 18.8 25.3 65.9 55.6 189.8
27/01 09:00 35 17 6.72 7 6 1013.1 0 14.8 18.3 25.2 65.9 57.4 197.1
26/01 09:00 30.4 24 7.44 7.7 9 1013.1 0 16.4 20.1 28.8 75.4 67.9 233.4
25/01 09:00 31.3 12 3.9 -0.8 9 1013.1 0 9.2 15.8 18.4 47.5 33.8 113.5
24/01 09:00 27.4 14 3.68 -2.4 9 1013.1 0 8.8 16.2 18.7 48.1 33.4 111.6
23/01 09:00 19.2 53 8.74 9.4 9 1013.1 0 19.6 24.6 37.7 99.0 93.6 322.2
22/01 09:00 16.2 52 7.17 6.4 22 1013.1 0 16.4 23.0 33.2 86.9 77.6 265.9

Last Refresh: 08-May-2026 12:10:11

Bureau of Meteorology